Time;durP1;ratioP1;P1;durP2;ratioP2;P2;SDS_P1;SDS_P2;PMS_P1;PMS_P2;Temp;Humidity;BMP_temperature;BMP_pressure;BME280_temperature;BME280_humidity;BME280_pressure;Samples;Min_cycle;Max_cycle;Signal;HPM_P1;HPM_P2
2023/05/25 00:01:03;;;;;;;6.43;2.40;;;;;;;;;;5047822;28;20393;-81
2023/05/25 00:03:32;;;;;;;7.13;2.58;;;;;;;;;;5038545;28;20392;-80
2023/05/25 00:06:00;;;;;;;6.40;2.70;;;;;;;;;;5047202;28;20036;-81
2023/05/25 00:08:25;;;;;;;6.88;2.83;;;;;;;;;;5029814;28;20385;-81
2023/05/25 00:10:51;;;;;;;6.32;2.70;;;;;;;;;;5050082;28;20029;-80
2023/05/25 00:13:16;;;;;;;9.50;3.00;;;;;;;;;;5033613;28;20032;-81
2023/05/25 00:15:41;;;;;;;5.63;2.55;;;;;;;;;;5032692;28;20021;-80
2023/05/25 00:18:07;;;;;;;6.03;2.30;;;;;;;;;;5030508;28;20029;-81
2023/05/25 00:20:33;;;;;;;6.72;2.60;;;;;;;;;;5025903;28;20040;-81
2023/05/25 00:23:01;;;;;;;6.25;2.53;;;;;;;;;;5045522;28;20044;-80
2023/05/25 00:25:26;;;;;;;5.75;2.63;;;;;;;;;;5047985;28;20043;-81
2023/05/25 00:27:51;;;;;;;8.68;2.67;;;;;;;;;;5041021;28;20029;-81
2023/05/25 00:30:17;;;;;;;6.47;2.85;;;;;;;;;;5047965;28;20028;-81
2023/05/25 00:32:42;;;;;;;6.25;2.72;;;;;;;;;;5061045;28;20380;-81
2023/05/25 00:35:08;;;;;;;4.78;2.40;;;;;;;;;;5049070;28;20076;-81
2023/05/25 00:37:33;;;;;;;6.72;2.72;;;;;;;;;;5051452;28;20024;-81
2023/05/25 00:39:58;;;;;;;5.03;2.33;;;;;;;;;;5032138;28;20084;-80
2023/05/25 00:42:24;;;;;;;6.05;2.58;;;;;;;;;;5033333;28;20028;-81
2023/05/25 00:44:49;;;;;;;6.10;2.58;;;;;;;;;;5048708;28;20075;-80
2023/05/25 00:47:16;;;;;;;5.85;2.72;;;;;;;;;;5049314;28;20028;-81
2023/05/25 00:49:42;;;;;;;6.53;2.47;;;;;;;;;;5039881;28;20445;-81
2023/05/25 00:52:11;;;;;;;6.72;2.58;;;;;;;;;;5034886;28;20057;-80
2023/05/25 00:54:36;;;;;;;5.68;2.53;;;;;;;;;;5044994;28;20020;-80
2023/05/25 00:57:03;;;;;;;7.13;2.70;;;;;;;;;;5025717;28;20131;-80
2023/05/25 00:59:40;;;;;;;6.03;2.40;;;;;;;;;;5022145;28;20036;-80
2023/05/25 01:02:12;;;;;;;7.20;2.58;;;;;;;;;;5027685;28;20542;-80
2023/05/25 01:04:43;;;;;;;4.97;2.47;;;;;;;;;;5021345;28;20025;-81
2023/05/25 01:07:11;;;;;;;6.03;2.45;;;;;;;;;;5026346;28;20489;-80
2023/05/25 01:09:43;;;;;;;7.10;2.50;;;;;;;;;;5023954;28;20473;-80
2023/05/25 01:12:09;;;;;;;7.95;2.72;;;;;;;;;;5044466;28;20028;-81
2023/05/25 01:14:38;;;;;;;5.75;2.60;;;;;;;;;;5044058;28;20359;-82
2023/05/25 01:17:03;;;;;;;6.03;2.80;;;;;;;;;;5044078;28;20526;-80
2023/05/25 01:19:32;;;;;;;5.55;2.53;;;;;;;;;;5045275;28;20057;-81
2023/05/25 01:22:16;;;;;;;6.88;2.83;;;;;;;;;;5032549;28;20034;-80
2023/05/25 01:24:46;;;;;;;6.28;2.70;;;;;;;;;;5042491;28;20455;-81
2023/05/25 01:27:23;;;;;;;5.30;2.50;;;;;;;;;;5044583;28;20021;-81
2023/05/25 01:29:49;;;;;;;6.03;2.40;;;;;;;;;;5049360;28;20493;-80
2023/05/25 01:32:16;;;;;;;6.00;2.30;;;;;;;;;;5031171;28;20025;-81
2023/05/25 01:34:43;;;;;;;7.28;2.42;;;;;;;;;;5051020;28;20465;-81
2023/05/25 01:37:12;;;;;;;7.38;3.05;;;;;;;;;;5029305;28;20026;-81
2023/05/25 01:39:38;;;;;;;6.32;2.50;;;;;;;;;;5049339;28;20037;-81
2023/05/25 01:42:03;;;;;;;5.30;2.72;;;;;;;;;;5039519;28;20029;-81
2023/05/25 01:44:29;;;;;;;5.45;2.40;;;;;;;;;;5047939;28;20035;-80
2023/05/25 01:47:13;;;;;;;5.88;2.40;;;;;;;;;;5045386;28;20111;-79
2023/05/25 01:50:10;;;;;;;6.53;2.30;;;;;;;;;;5026191;28;20056;-82
2023/05/25 01:52:44;;;;;;;6.20;2.38;;;;;;;;;;5028679;28;20098;-79
2023/05/25 01:55:19;;;;;;;4.85;2.40;;;;;;;;;;5044501;28;20033;-81
2023/05/25 01:57:48;;;;;;;7.35;2.50;;;;;;;;;;5042459;28;20044;-81
2023/05/25 02:00:15;;;;;;;8.93;2.80;;;;;;;;;;5038813;28;20048;-81
2023/05/25 02:02:42;;;;;;;4.38;2.40;;;;;;;;;;5026164;28;20435;-80
2023/05/25 02:05:08;;;;;;;5.68;2.47;;;;;;;;;;5042636;28;20071;-81
2023/05/25 02:07:35;;;;;;;4.10;2.20;;;;;;;;;;5029895;28;20028;-81
2023/05/25 02:10:00;;;;;;;5.28;2.10;;;;;;;;;;5033585;28;20171;-81
2023/05/25 02:12:26;;;;;;;7.95;2.80;;;;;;;;;;5038444;28;20115;-81
2023/05/25 02:14:51;;;;;;;5.95;2.58;;;;;;;;;;5050205;28;20028;-81
2023/05/25 02:17:16;;;;;;;6.50;2.50;;;;;;;;;;5050010;28;20489;-80
2023/05/25 02:19:43;;;;;;;9.10;3.00;;;;;;;;;;5032406;28;20621;-81
2023/05/25 02:22:09;;;;;;;6.55;2.55;;;;;;;;;;5032483;28;20119;-81
2023/05/25 02:24:36;;;;;;;8.75;2.40;;;;;;;;;;5050044;28;20143;-81
2023/05/25 02:27:03;;;;;;;6.45;2.83;;;;;;;;;;5049019;28;20025;-81
2023/05/25 02:29:28;;;;;;;6.15;2.60;;;;;;;;;;5031272;28;20032;-81
2023/05/25 02:31:53;;;;;;;5.93;2.53;;;;;;;;;;5045081;28;20469;-81
2023/05/25 02:34:19;;;;;;;7.18;3.58;;;;;;;;;;5029508;28;20171;-79
2023/05/25 02:36:44;;;;;;;4.68;2.65;;;;;;;;;;5042676;28;20029;-81
2023/05/25 02:39:10;;;;;;;6.22;2.75;;;;;;;;;;5026140;28;20044;-80
2023/05/25 02:41:37;;;;;;;4.78;2.33;;;;;;;;;;5046393;28;20033;-81
2023/05/25 02:44:02;;;;;;;6.07;2.40;;;;;;;;;;5028658;28;20032;-81
2023/05/25 02:46:27;;;;;;;6.28;2.75;;;;;;;;;;5031296;28;20025;-80
2023/05/25 02:48:53;;;;;;;6.60;2.60;;;;;;;;;;5028131;28;20033;-81
2023/05/25 02:51:18;;;;;;;5.97;2.65;;;;;;;;;;5012030;28;20029;-81
2023/05/25 02:53:43;;;;;;;6.18;2.50;;;;;;;;;;5027672;28;20772;-81
2023/05/25 02:56:11;;;;;;;5.80;2.30;;;;;;;;;;5010352;28;20037;-81
2023/05/25 02:58:37;;;;;;;4.97;2.47;;;;;;;;;;5030590;28;20510;-81
2023/05/25 03:01:04;;;;;;;6.93;2.58;;;;;;;;;;5028715;28;20053;-81
2023/05/25 03:03:30;;;;;;;4.10;2.25;;;;;;;;;;5029054;28;20474;-81
2023/05/25 03:05:56;;;;;;;6.00;2.78;;;;;;;;;;5033685;28;20040;-81
2023/05/25 03:08:21;;;;;;;5.60;2.60;;;;;;;;;;5030519;28;20025;-81
2023/05/25 03:10:47;;;;;;;6.88;3.08;;;;;;;;;;5023617;28;20026;-81
2023/05/25 03:13:12;;;;;;;5.80;2.55;;;;;;;;;;5030131;28;20026;-81
2023/05/25 03:15:39;;;;;;;6.28;2.85;;;;;;;;;;5008118;28;20490;-80
2023/05/25 03:18:05;;;;;;;6.13;2.45;;;;;;;;;;5009017;28;20034;-81
2023/05/25 03:20:31;;;;;;;5.60;2.45;;;;;;;;;;5018353;28;20477;-81
2023/05/25 03:22:57;;;;;;;6.55;3.15;;;;;;;;;;5025209;28;20506;-81
2023/05/25 03:25:23;;;;;;;6.30;2.95;;;;;;;;;;5029109;28;20096;-81
2023/05/25 03:27:52;;;;;;;7.65;3.03;;;;;;;;;;5019776;28;20029;-81
2023/05/25 03:30:18;;;;;;;6.32;2.85;;;;;;;;;;5006401;28;20025;-81
2023/05/25 03:32:43;;;;;;;6.88;2.78;;;;;;;;;;5019322;28;20542;-81
2023/05/25 03:35:09;;;;;;;4.75;2.83;;;;;;;;;;5024787;28;20117;-81
2023/05/25 03:37:34;;;;;;;5.43;2.75;;;;;;;;;;5004043;28;20040;-79
2023/05/25 03:39:59;;;;;;;6.63;2.90;;;;;;;;;;5012393;28;20072;-81
2023/05/25 03:42:25;;;;;;;5.68;2.90;;;;;;;;;;5018132;28;20120;-81
2023/05/25 03:44:50;;;;;;;6.18;2.78;;;;;;;;;;5010993;28;20482;-80
2023/05/25 03:47:16;;;;;;;5.28;2.58;;;;;;;;;;5013733;28;20067;-81
2023/05/25 03:49:41;;;;;;;5.35;2.97;;;;;;;;;;5035440;28;20017;-81
2023/05/25 03:52:06;;;;;;;4.88;2.53;;;;;;;;;;5040468;28;20083;-81
2023/05/25 03:54:32;;;;;;;6.82;2.95;;;;;;;;;;5043411;28;20026;-81
2023/05/25 03:56:58;;;;;;;6.88;2.55;;;;;;;;;;5036608;28;20079;-80
2023/05/25 03:59:24;;;;;;;5.95;2.88;;;;;;;;;;5047156;28;20039;-81
2023/05/25 04:01:50;;;;;;;6.25;2.67;;;;;;;;;;5048953;28;20035;-80
2023/05/25 04:04:15;;;;;;;6.32;2.60;;;;;;;;;;5029161;28;20025;-80
2023/05/25 04:06:41;;;;;;;10.13;3.53;;;;;;;;;;5047717;28;20037;-81
2023/05/25 04:09:06;;;;;;;6.80;2.60;;;;;;;;;;5032576;28;20059;-79
2023/05/25 04:11:32;;;;;;;5.55;2.60;;;;;;;;;;5044941;28;20064;-81
2023/05/25 04:13:58;;;;;;;7.75;2.78;;;;;;;;;;5021787;28;20025;-81
2023/05/25 04:16:25;;;;;;;5.75;2.50;;;;;;;;;;5030674;28;20071;-81
2023/05/25 04:18:50;;;;;;;5.47;2.35;;;;;;;;;;5034687;28;20060;-80
2023/05/25 04:21:16;;;;;;;4.60;2.17;;;;;;;;;;5048123;28;20132;-81
2023/05/25 04:23:42;;;;;;;6.93;2.53;;;;;;;;;;5026226;28;20021;-81
2023/05/25 04:26:09;;;;;;;6.22;2.42;;;;;;;;;;5041541;28;20036;-81
2023/05/25 04:28:35;;;;;;;6.70;2.38;;;;;;;;;;5049021;28;20094;-81
2023/05/25 04:31:02;;;;;;;5.80;2.70;;;;;;;;;;5028648;28;20440;-80
2023/05/25 04:33:28;;;;;;;7.05;2.75;;;;;;;;;;5047183;28;20381;-81
2023/05/25 04:35:57;;;;;;;7.47;2.40;;;;;;;;;;5020686;28;20033;-80
2023/05/25 04:38:23;;;;;;;8.50;2.60;;;;;;;;;;5032997;28;20025;-82
2023/05/25 04:40:50;;;;;;;6.97;2.80;;;;;;;;;;5030483;28;20027;-81
2023/05/25 04:43:17;;;;;;;7.15;2.70;;;;;;;;;;5037565;28;20115;-81
2023/05/25 04:45:44;;;;;;;5.40;2.40;;;;;;;;;;5049057;28;20082;-79
2023/05/25 04:48:11;;;;;;;6.45;2.67;;;;;;;;;;5025188;28;20047;-81
2023/05/25 04:50:40;;;;;;;5.00;2.67;;;;;;;;;;5026367;28;20025;-81
2023/05/25 04:53:06;;;;;;;5.68;2.15;;;;;;;;;;5026262;28;20032;-80
2023/05/25 04:55:31;;;;;;;6.72;2.70;;;;;;;;;;5049247;28;20029;-81
2023/05/25 04:57:57;;;;;;;5.88;2.53;;;;;;;;;;5050374;28;20075;-81
2023/05/25 05:00:23;;;;;;;5.43;2.70;;;;;;;;;;5018466;28;20568;-82
2023/05/25 05:02:50;;;;;;;6.65;2.78;;;;;;;;;;5049521;28;20036;-81
2023/05/25 05:05:16;;;;;;;6.85;2.65;;;;;;;;;;5062010;28;20025;-82
2023/05/25 05:07:42;;;;;;;6.18;2.50;;;;;;;;;;5044798;28;20032;-82
2023/05/25 05:10:08;;;;;;;6.18;2.90;;;;;;;;;;5048957;28;20021;-80
2023/05/25 05:12:33;;;;;;;5.70;2.13;;;;;;;;;;5030678;28;20025;-81
2023/05/25 05:14:59;;;;;;;9.27;2.50;;;;;;;;;;5052657;28;20016;-81
2023/05/25 05:17:26;;;;;;;6.10;2.60;;;;;;;;;;5035369;28;20020;-81
2023/05/25 05:19:52;;;;;;;6.40;2.63;;;;;;;;;;5058429;28;20024;-81
2023/05/25 05:22:17;;;;;;;6.47;2.70;;;;;;;;;;5049488;28;20025;-81
2023/05/25 05:24:42;;;;;;;6.03;2.67;;;;;;;;;;5050871;28;20037;-81
2023/05/25 05:27:08;;;;;;;7.72;2.95;;;;;;;;;;5052848;28;20071;-81
2023/05/25 05:29:33;;;;;;;4.82;2.50;;;;;;;;;;5029971;28;20068;-83
2023/05/25 05:31:59;;;;;;;5.68;2.60;;;;;;;;;;5026992;28;20052;-83
2023/05/25 05:34:24;;;;;;;9.60;3.22;;;;;;;;;;5047425;28;20021;-84
2023/05/25 05:36:50;;;;;;;7.20;2.70;;;;;;;;;;5050699;28;20392;-82
2023/05/25 05:39:15;;;;;;;6.13;2.53;;;;;;;;;;5049816;28;20048;-80
2023/05/25 05:41:43;;;;;;;7.70;2.67;;;;;;;;;;5030773;28;20036;-80
2023/05/25 05:44:09;;;;;;;7.68;2.97;;;;;;;;;;5050864;28;20079;-81
2023/05/25 05:46:36;;;;;;;5.70;2.60;;;;;;;;;;5028810;28;20032;-81
2023/05/25 05:49:01;;;;;;;7.57;2.75;;;;;;;;;;5029976;28;20115;-81
2023/05/25 05:51:26;;;;;;;9.07;3.17;;;;;;;;;;5049329;28;20120;-81
2023/05/25 05:53:52;;;;;;;6.00;2.78;;;;;;;;;;5041648;28;20075;-80
2023/05/25 05:56:18;;;;;;;5.68;3.00;;;;;;;;;;5032336;28;20079;-83
2023/05/25 05:58:44;;;;;;;11.25;3.13;;;;;;;;;;5031053;28;20463;-81
2023/05/25 06:01:09;;;;;;;10.65;3.25;;;;;;;;;;5026229;28;20029;-83
2023/05/25 06:03:36;;;;;;;10.65;3.00;;;;;;;;;;5026583;28;20052;-81
2023/05/25 06:06:02;;;;;;;7.40;3.20;;;;;;;;;;5049528;28;20116;-81
2023/05/25 06:08:28;;;;;;;6.30;3.20;;;;;;;;;;5026031;28;20113;-81
2023/05/25 06:10:54;;;;;;;8.75;3.35;;;;;;;;;;5027664;28;20083;-80
2023/05/25 06:13:20;;;;;;;7.22;3.10;;;;;;;;;;5023219;28;20025;-81
2023/05/25 06:15:45;;;;;;;7.25;3.65;;;;;;;;;;5044722;28;20076;-82
2023/05/25 06:18:10;;;;;;;11.02;3.90;;;;;;;;;;5033912;28;20028;-81
2023/05/25 06:20:36;;;;;;;9.48;3.80;;;;;;;;;;5042408;28;20397;-81
2023/05/25 06:23:01;;;;;;;9.40;4.35;;;;;;;;;;5048598;28;20024;-81
2023/05/25 06:25:27;;;;;;;10.63;3.97;;;;;;;;;;5053305;28;20021;-81
2023/05/25 06:27:52;;;;;;;12.13;5.20;;;;;;;;;;5038392;28;20025;-81
2023/05/25 06:30:17;;;;;;;7.90;4.00;;;;;;;;;;5036650;28;20086;-80
2023/05/25 06:32:43;;;;;;;9.23;3.70;;;;;;;;;;5056197;28;20488;-81
2023/05/25 06:35:11;;;;;;;9.27;3.70;;;;;;;;;;5048607;28;20021;-81
2023/05/25 06:37:37;;;;;;;8.85;4.00;;;;;;;;;;5037463;28;20032;-81
2023/05/25 06:40:09;;;;;;;9.60;3.80;;;;;;;;;;5041628;28;20140;-81
2023/05/25 06:42:34;;;;;;;8.13;3.42;;;;;;;;;;5038920;28;20411;-82
2023/05/25 06:45:00;;;;;;;8.48;3.33;;;;;;;;;;5042842;28;20017;-83
2023/05/25 06:47:25;;;;;;;8.32;3.58;;;;;;;;;;5055394;28;20362;-84
2023/05/25 06:49:51;;;;;;;8.48;3.83;;;;;;;;;;5050851;28;20041;-83
2023/05/25 06:52:16;;;;;;;9.00;3.35;;;;;;;;;;5025043;28;20370;-84
2023/05/25 06:54:41;;;;;;;9.13;3.65;;;;;;;;;;5054247;28;20021;-81
2023/05/25 06:57:08;;;;;;;10.48;4.13;;;;;;;;;;5062117;28;20095;-81
2023/05/25 06:59:33;;;;;;;9.98;3.65;;;;;;;;;;5052590;28;20021;-81
2023/05/25 07:01:59;;;;;;;9.15;3.15;;;;;;;;;;5036728;28;20056;-81
2023/05/25 07:04:25;;;;;;;7.90;3.53;;;;;;;;;;5036424;28;20397;-81
2023/05/25 07:06:51;;;;;;;10.60;4.45;;;;;;;;;;5041575;28;20141;-83
2023/05/25 07:09:16;;;;;;;8.15;4.10;;;;;;;;;;5035526;28;20025;-83
2023/05/25 07:11:42;;;;;;;8.68;3.38;;;;;;;;;;5045623;28;20400;-83
2023/05/25 07:14:07;;;;;;;10.93;3.88;;;;;;;;;;5041051;28;20032;-83
2023/05/25 07:16:33;;;;;;;9.90;3.72;;;;;;;;;;5037152;28;20048;-84
2023/05/25 07:18:58;;;;;;;7.70;3.50;;;;;;;;;;5052040;28;20025;-83
2023/05/25 07:21:24;;;;;;;8.70;3.58;;;;;;;;;;5039207;28;20029;-82
2023/05/25 07:23:49;;;;;;;8.45;3.63;;;;;;;;;;5031341;28;20055;-80
2023/05/25 07:26:15;;;;;;;10.10;4.22;;;;;;;;;;5045978;28;20074;-81
2023/05/25 07:28:40;;;;;;;11.52;3.80;;;;;;;;;;5030438;28;20063;-81
2023/05/25 07:31:07;;;;;;;9.45;3.92;;;;;;;;;;5054273;28;20035;-81
2023/05/25 07:33:32;;;;;;;12.00;3.58;;;;;;;;;;5052744;28;20028;-82
2023/05/25 07:35:58;;;;;;;9.02;4.10;;;;;;;;;;5041160;28;20424;-81
2023/05/25 07:38:23;;;;;;;8.57;3.67;;;;;;;;;;5054622;28;20139;-82
2023/05/25 07:40:49;;;;;;;10.57;3.88;;;;;;;;;;5043236;28;20033;-81
2023/05/25 07:43:14;;;;;;;12.57;4.03;;;;;;;;;;5051569;28;20555;-82
2023/05/25 07:45:40;;;;;;;10.80;4.20;;;;;;;;;;5036482;28;20060;-82
2023/05/25 07:48:06;;;;;;;8.52;3.33;;;;;;;;;;5029030;28;20037;-81
2023/05/25 07:50:32;;;;;;;8.75;3.45;;;;;;;;;;5040674;28;20114;-82
2023/05/25 07:52:58;;;;;;;6.22;3.05;;;;;;;;;;5043403;28;20048;-81
2023/05/25 07:55:25;;;;;;;7.38;3.25;;;;;;;;;;5037914;28;20477;-81
2023/05/25 07:57:50;;;;;;;9.02;3.92;;;;;;;;;;5042502;28;20049;-81
2023/05/25 08:00:16;;;;;;;9.23;3.88;;;;;;;;;;5040708;28;20504;-82
2023/05/25 08:02:42;;;;;;;10.85;3.85;;;;;;;;;;5045944;28;20024;-82
2023/05/25 08:05:08;;;;;;;10.35;3.97;;;;;;;;;;5038821;28;20036;-82
2023/05/25 08:07:34;;;;;;;14.77;3.53;;;;;;;;;;5035229;28;20135;-81
2023/05/25 08:10:00;;;;;;;9.35;3.67;;;;;;;;;;5025538;28;20120;-81
2023/05/25 08:12:25;;;;;;;7.72;3.60;;;;;;;;;;5029885;28;20401;-83
2023/05/25 08:14:52;;;;;;;8.23;3.63;;;;;;;;;;5040705;28;20025;-81
2023/05/25 08:17:18;;;;;;;9.73;3.97;;;;;;;;;;5027858;28;20029;-82
2023/05/25 08:19:43;;;;;;;10.30;3.63;;;;;;;;;;5035721;28;20023;-82
2023/05/25 08:22:09;;;;;;;8.88;3.83;;;;;;;;;;5041659;28;20025;-82
2023/05/25 08:24:35;;;;;;;9.27;3.60;;;;;;;;;;5031414;28;20029;-82
2023/05/25 08:27:01;;;;;;;9.40;3.55;;;;;;;;;;5053866;28;20027;-83
2023/05/25 08:29:26;;;;;;;8.85;3.67;;;;;;;;;;5049319;28;20029;-84
2023/05/25 08:31:52;;;;;;;6.85;2.88;;;;;;;;;;5049156;28;20029;-82
2023/05/25 08:34:17;;;;;;;9.77;3.35;;;;;;;;;;5053002;28;20499;-81
2023/05/25 08:36:43;;;;;;;9.27;3.08;;;;;;;;;;5051383;28;20484;-82
2023/05/25 08:39:09;;;;;;;9.05;3.17;;;;;;;;;;5036498;28;20031;-81
2023/05/25 08:41:43;;;;;;;6.82;2.97;;;;;;;;;;5053484;28;20025;-82
2023/05/25 08:44:09;;;;;;;7.57;3.15;;;;;;;;;;5032983;28;20033;-82
2023/05/25 08:46:35;;;;;;;11.02;2.60;;;;;;;;;;5040999;28;20025;-82
2023/05/25 08:49:12;;;;;;;8.02;2.70;;;;;;;;;;5036216;28;20033;-82
2023/05/25 08:51:42;;;;;;;9.95;2.50;;;;;;;;;;5019271;28;20033;-81
2023/05/25 08:54:10;;;;;;;8.88;2.75;;;;;;;;;;5048697;28;20355;-81
2023/05/25 08:56:43;;;;;;;8.48;2.40;;;;;;;;;;5042437;28;20489;-81
2023/05/25 08:59:39;;;;;;;7.20;2.70;;;;;;;;;;5050726;28;20508;-82
2023/05/25 09:02:33;;;;;;;9.55;2.78;;;;;;;;;;5043483;28;20031;-82
2023/05/25 09:05:00;;;;;;;7.35;2.60;;;;;;;;;;5031144;28;20500;-83
2023/05/25 09:07:27;;;;;;;6.50;2.28;;;;;;;;;;5042799;28;20029;-82
2023/05/25 09:09:53;;;;;;;8.07;2.40;;;;;;;;;;5049155;28;20443;-82
2023/05/25 09:12:20;;;;;;;7.25;2.55;;;;;;;;;;5044838;28;20021;-82
2023/05/25 09:14:46;;;;;;;6.95;2.33;;;;;;;;;;5039280;28;20029;-82
2023/05/25 09:17:13;;;;;;;6.28;2.40;;;;;;;;;;5051193;28;20056;-82
2023/05/25 09:19:38;;;;;;;8.63;2.58;;;;;;;;;;5053968;28;20083;-82
2023/05/25 09:22:04;;;;;;;7.43;2.50;;;;;;;;;;5037612;28;20481;-82
2023/05/25 09:24:30;;;;;;;8.07;2.42;;;;;;;;;;5033370;28;20049;-82
2023/05/25 09:26:55;;;;;;;7.72;2.60;;;;;;;;;;5043149;28;20033;-82
2023/05/25 09:29:21;;;;;;;6.43;2.58;;;;;;;;;;5031472;28;20119;-82
2023/05/25 09:31:46;;;;;;;5.55;2.67;;;;;;;;;;5034787;28;20043;-82
2023/05/25 09:34:13;;;;;;;9.75;2.53;;;;;;;;;;5042811;28;20025;-82
2023/05/25 09:36:40;;;;;;;7.18;2.55;;;;;;;;;;5041196;28;20017;-82
2023/05/25 09:39:14;;;;;;;6.40;2.20;;;;;;;;;;5041713;28;20051;-82
2023/05/25 09:41:40;;;;;;;6.40;2.38;;;;;;;;;;5044615;28;20485;-80
2023/05/25 09:44:06;;;;;;;10.38;2.75;;;;;;;;;;5044239;28;20021;-83
2023/05/25 09:46:35;;;;;;;5.93;2.50;;;;;;;;;;5053232;28;20393;-81
2023/05/25 09:49:02;;;;;;;7.65;2.88;;;;;;;;;;5041205;28;20424;-82
2023/05/25 09:51:31;;;;;;;6.65;2.60;;;;;;;;;;5040247;28;20473;-82
2023/05/25 09:53:58;;;;;;;6.53;2.60;;;;;;;;;;5056404;28;20025;-82
2023/05/25 09:56:25;;;;;;;9.20;2.88;;;;;;;;;;5055708;28;20112;-82
2023/05/25 09:58:51;;;;;;;7.82;2.40;;;;;;;;;;5041423;28;20057;-81
2023/05/25 10:01:18;;;;;;;6.85;2.17;;;;;;;;;;5039298;28;20083;-82
2023/05/25 10:03:47;;;;;;;10.43;3.17;;;;;;;;;;5033981;28;20078;-82
2023/05/25 10:06:13;;;;;;;7.80;2.50;;;;;;;;;;5050330;28;20024;-82
2023/05/25 10:08:40;;;;;;;7.05;2.47;;;;;;;;;;5040833;28;20469;-82
2023/05/25 10:11:06;;;;;;;6.28;2.22;;;;;;;;;;5031475;28;20032;-82
2023/05/25 10:13:32;;;;;;;7.32;3.00;;;;;;;;;;5030730;28;20025;-82
2023/05/25 10:15:58;;;;;;;8.82;2.58;;;;;;;;;;5046094;28;20115;-82
2023/05/25 10:18:26;;;;;;;6.60;2.60;;;;;;;;;;5038477;28;20040;-82
2023/05/25 10:21:00;;;;;;;11.73;3.17;;;;;;;;;;5039749;28;20056;-82
2023/05/25 10:23:40;;;;;;;7.38;2.58;;;;;;;;;;5050177;28;20021;-81
2023/05/25 10:26:07;;;;;;;7.85;3.10;;;;;;;;;;5049734;28;20591;-82
2023/05/25 10:28:38;;;;;;;8.43;2.92;;;;;;;;;;5051069;28;20025;-82
2023/05/25 10:31:04;;;;;;;6.22;2.42;;;;;;;;;;5038974;28;20473;-82
2023/05/25 10:33:31;;;;;;;10.48;3.20;;;;;;;;;;5057730;28;20477;-81
2023/05/25 10:35:56;;;;;;;8.90;2.50;;;;;;;;;;5044044;28;20025;-81
2023/05/25 10:38:25;;;;;;;7.47;2.70;;;;;;;;;;5041637;28;20493;-82
2023/05/25 10:40:53;;;;;;;12.02;3.60;;;;;;;;;;5028872;28;20033;-82
2023/05/25 10:43:19;;;;;;;6.53;2.58;;;;;;;;;;5047052;28;20159;-82
2023/05/25 10:45:46;;;;;;;7.68;3.05;;;;;;;;;;5037271;28;20381;-81
2023/05/25 10:48:14;;;;;;;8.85;2.90;;;;;;;;;;5049869;28;20417;-81
2023/05/25 10:50:40;;;;;;;7.50;2.80;;;;;;;;;;5041454;28;20124;-82
2023/05/25 10:53:07;;;;;;;10.13;2.95;;;;;;;;;;5048074;28;20033;-81
2023/05/25 10:55:52;;;;;;;8.80;2.88;;;;;;;;;;5047247;28;20033;-82
2023/05/25 10:58:20;;;;;;;5.93;2.60;;;;;;;;;;5023307;28;20045;-82
2023/05/25 11:01:15;;;;;;;9.00;3.20;;;;;;;;;;5026346;28;20105;-82
2023/05/25 11:03:43;;;;;;;6.45;2.78;;;;;;;;;;5019754;28;20102;-81
2023/05/25 11:06:14;;;;;;;8.02;2.85;;;;;;;;;;5045337;28;20075;-82
2023/05/25 11:08:50;;;;;;;6.75;2.88;;;;;;;;;;5055539;28;20465;-82
2023/05/25 11:11:15;;;;;;;11.63;3.42;;;;;;;;;;5039498;28;20052;-81
2023/05/25 11:13:48;;;;;;;5.78;2.92;;;;;;;;;;5038586;28;20118;-81
2023/05/25 11:16:22;;;;;;;7.00;3.03;;;;;;;;;;5031587;28;20053;-82
2023/05/25 11:18:52;;;;;;;7.00;2.78;;;;;;;;;;5027594;28;20033;-81
2023/05/25 11:21:39;;;;;;;8.27;3.13;;;;;;;;;;5037198;28;20083;-81
2023/05/25 11:24:11;;;;;;;7.00;3.05;;;;;;;;;;5050188;28;20037;-82
2023/05/25 11:26:52;;;;;;;7.28;3.30;;;;;;;;;;5051737;28;20104;-82
2023/05/25 11:29:20;;;;;;;8.13;2.90;;;;;;;;;;5040138;28;20374;-82
2023/05/25 11:31:51;;;;;;;8.45;2.97;;;;;;;;;;5054784;28;20040;-81
2023/05/25 11:34:17;;;;;;;7.88;3.20;;;;;;;;;;5043515;28;20025;-82
2023/05/25 11:36:42;;;;;;;8.13;3.40;;;;;;;;;;5055407;28;20025;-82
2023/05/25 11:39:09;;;;;;;8.85;3.13;;;;;;;;;;5037137;28;20020;-81
2023/05/25 11:41:36;;;;;;;8.70;2.90;;;;;;;;;;5040231;28;20025;-82
2023/05/25 11:44:08;;;;;;;5.72;2.70;;;;;;;;;;5047172;28;20225;-82
2023/05/25 11:46:33;;;;;;;7.57;2.88;;;;;;;;;;5029963;28;20018;-82
2023/05/25 11:48:59;;;;;;;7.10;3.08;;;;;;;;;;5052645;28;20039;-82
2023/05/25 11:51:27;;;;;;;5.70;2.75;;;;;;;;;;5034173;28;20512;-82
2023/05/25 11:53:53;;;;;;;6.57;2.88;;;;;;;;;;5046096;28;20029;-82
2023/05/25 11:56:19;;;;;;;7.55;2.88;;;;;;;;;;5034967;28;20021;-82
2023/05/25 11:58:46;;;;;;;5.90;2.60;;;;;;;;;;5054478;28;20025;-81
2023/05/25 12:01:19;;;;;;;8.80;2.90;;;;;;;;;;5027299;28;20543;-82
2023/05/25 12:03:47;;;;;;;10.40;2.85;;;;;;;;;;5040235;28;20475;-81
2023/05/25 12:06:40;;;;;;;10.25;3.10;;;;;;;;;;5050163;28;20082;-81
2023/05/25 12:09:10;;;;;;;5.00;2.47;;;;;;;;;;5048586;28;20131;-81
2023/05/25 12:11:44;;;;;;;6.15;2.55;;;;;;;;;;5040937;28;20025;-82
2023/05/25 12:14:09;;;;;;;4.97;2.60;;;;;;;;;;5045237;28;20025;-81
2023/05/25 12:16:37;;;;;;;9.02;2.40;;;;;;;;;;5053245;28;20067;-82
2023/05/25 12:19:03;;;;;;;6.32;2.53;;;;;;;;;;5045533;28;20040;-82
2023/05/25 12:21:29;;;;;;;6.53;2.40;;;;;;;;;;5047469;28;20029;-81
2023/05/25 12:23:55;;;;;;;5.97;2.55;;;;;;;;;;5043412;28;20051;-82
2023/05/25 12:26:20;;;;;;;6.57;2.55;;;;;;;;;;5056390;28;20032;-81
2023/05/25 12:29:06;;;;;;;6.35;2.35;;;;;;;;;;5045630;28;20389;-82
2023/05/25 12:31:39;;;;;;;5.28;2.53;;;;;;;;;;5038002;28;20029;-82
2023/05/25 12:34:09;;;;;;;5.95;2.22;;;;;;;;;;5024584;28;20029;-82
2023/05/25 12:36:43;;;;;;;7.00;2.53;;;;;;;;;;5030327;28;20028;-81
2023/05/25 12:39:10;;;;;;;6.50;2.47;;;;;;;;;;5055404;28;20048;-82
2023/05/25 12:41:49;;;;;;;7.40;2.40;;;;;;;;;;5034044;28;20140;-81
2023/05/25 12:44:32;;;;;;;6.40;2.80;;;;;;;;;;5031364;28;20033;-82
2023/05/25 12:47:13;;;;;;;6.00;2.60;;;;;;;;;;5035615;28;20394;-82
2023/05/25 12:49:41;;;;;;;5.13;2.40;;;;;;;;;;5024490;28;20033;-82
2023/05/25 12:52:08;;;;;;;7.20;2.70;;;;;;;;;;5006295;28;20031;-82
2023/05/25 12:54:45;;;;;;;6.88;2.50;;;;;;;;;;5007514;28;20036;-82
2023/05/25 12:57:16;;;;;;;6.03;2.50;;;;;;;;;;5028187;28;20021;-82
2023/05/25 12:59:46;;;;;;;5.82;2.40;;;;;;;;;;5024597;28;20080;-82
2023/05/25 13:02:12;;;;;;;6.90;2.33;;;;;;;;;;5000810;28;20022;-81
2023/05/25 13:04:40;;;;;;;5.22;2.40;;;;;;;;;;5009457;28;20025;-82
2023/05/25 13:07:07;;;;;;;5.95;2.45;;;;;;;;;;5017147;28;20489;-82
2023/05/25 13:09:33;;;;;;;7.60;2.50;;;;;;;;;;5033687;28;20033;-84
2023/05/25 13:12:01;;;;;;;7.13;2.30;;;;;;;;;;5032145;28;20076;-82
2023/05/25 13:14:26;;;;;;;7.85;2.08;;;;;;;;;;5024336;28;20017;-82
2023/05/25 13:16:53;;;;;;;6.05;2.70;;;;;;;;;;5018367;28;20470;-81
2023/05/25 13:19:20;;;;;;;7.63;2.63;;;;;;;;;;5012811;28;20033;-82
2023/05/25 13:21:48;;;;;;;6.80;2.50;;;;;;;;;;5029242;28;20026;-81
2023/05/25 13:24:13;;;;;;;5.60;2.45;;;;;;;;;;5011377;28;20486;-84
2023/05/25 13:26:39;;;;;;;5.95;2.38;;;;;;;;;;5030321;28;20049;-84
2023/05/25 13:29:04;;;;;;;5.25;2.50;;;;;;;;;;5030735;28;20036;-84
2023/05/25 13:31:30;;;;;;;6.57;2.80;;;;;;;;;;5015890;28;20065;-84
2023/05/25 13:33:57;;;;;;;6.43;2.60;;;;;;;;;;5009070;28;20025;-84
2023/05/25 13:36:22;;;;;;;7.25;2.70;;;;;;;;;;5014604;28;20040;-84
2023/05/25 13:38:48;;;;;;;6.80;2.30;;;;;;;;;;5015296;28;20390;-84
2023/05/25 13:41:13;;;;;;;7.18;2.75;;;;;;;;;;5031237;28;20032;-84
2023/05/25 13:43:39;;;;;;;8.20;2.45;;;;;;;;;;5022902;28;20021;-83
2023/05/25 13:46:04;;;;;;;6.18;2.50;;;;;;;;;;5014832;28;20037;-83
2023/05/25 13:48:29;;;;;;;6.40;2.58;;;;;;;;;;5046169;28;20035;-83
2023/05/25 13:50:55;;;;;;;6.55;2.70;;;;;;;;;;5032989;28;20035;-83
2023/05/25 13:53:20;;;;;;;5.07;2.22;;;;;;;;;;5039078;28;20111;-83
2023/05/25 13:55:46;;;;;;;5.50;2.58;;;;;;;;;;5042542;28;20091;-83
2023/05/25 13:58:12;;;;;;;7.38;2.83;;;;;;;;;;5037175;28;20090;-83
2023/05/25 14:00:37;;;;;;;7.97;2.95;;;;;;;;;;5030063;28;20027;-83
2023/05/25 14:03:03;;;;;;;6.43;2.47;;;;;;;;;;5043299;28;20104;-83
2023/05/25 14:05:29;;;;;;;7.32;2.95;;;;;;;;;;5048781;28;20534;-83
2023/05/25 14:07:55;;;;;;;9.00;2.80;;;;;;;;;;5030023;28;20041;-83
2023/05/25 14:10:21;;;;;;;8.20;3.13;;;;;;;;;;5023931;28;20032;-84
2023/05/25 14:12:46;;;;;;;5.00;2.58;;;;;;;;;;5036090;28;20107;-81
2023/05/25 14:15:11;;;;;;;5.88;2.50;;;;;;;;;;5030110;28;20090;-83
2023/05/25 14:17:37;;;;;;;8.85;2.88;;;;;;;;;;5044141;28;20029;-83
2023/05/25 14:20:02;;;;;;;8.93;2.83;;;;;;;;;;5030079;28;20029;-83
2023/05/25 14:22:29;;;;;;;8.43;2.58;;;;;;;;;;5027181;28;20032;-83
2023/05/25 14:24:54;;;;;;;9.55;2.97;;;;;;;;;;5025225;28;20035;-82
2023/05/25 14:27:20;;;;;;;7.90;2.20;;;;;;;;;;5044070;28;20033;-83
2023/05/25 14:29:46;;;;;;;10.50;2.85;;;;;;;;;;5047978;28;20109;-81
2023/05/25 14:32:13;;;;;;;7.57;2.90;;;;;;;;;;5030030;28;20033;-83
2023/05/25 14:34:39;;;;;;;6.53;2.53;;;;;;;;;;5026689;28;20099;-82
2023/05/25 14:37:04;;;;;;;8.43;2.60;;;;;;;;;;5027587;28;20500;-83
2023/05/25 14:39:29;;;;;;;9.38;2.65;;;;;;;;;;5029834;28;20028;-83
2023/05/25 14:41:55;;;;;;;7.10;2.50;;;;;;;;;;5047493;28;20477;-84